PWSweather.com
Personal Weather Stations
Station Observations
OLESAMETEO
Olesa De Montserrat, Olesa De MontserratES

Olesa De MontserratOlesa De MontserratES

Lat: 41.53982, Lon: 1.89508

Elevation: 110

Station Type: DAVIS VANTAGE VUE

http://olesameteo.net

Latest ConditionsUpdated 6:20:02 PM GMT+01:01 Friday, Feb 22, 2019
Currently Today's Max Today's Min Today's Average
Temperature 67.5°F19.7°C 73.5°F23.1°C 40.6°F4.8°C 53.5°F11.9°C
Dew Point 40.3°F4.6°C 43.4°F6.3°C 35.4°F1.9°C 39.7°F4.3°C
Winds Calm Calm 5.8 mph -9.3 kmh - - 2.0 mph 3.2 kmh
Wind Gusts -- 11.5 mph18.5 kmh - -
Humidity 37% 91% 30% 64%
Pressure 30.27 in1025.1 mb 30.43 in1030.5 mb 30.26 in1024.7 mb -
Hour Temp Dew Point Humidity Winds Wind Gusts Pressure Precip Precip Rate Daily Precip Total
06:20 PM 67.5°F19.7°C 40.3°F4.6°C 37% Calm Calm -- 30.27 in1025.1 mb - 0.00 in0.0 mm 0.00 in0.0 mm
06:10 PM 68.4°F20.2°C 40.4°F4.7°C 36% Calm Calm -- 30.27 in1025.1 mb - 0.00 in0.0 mm 0.00 in0.0 mm
06:00 PM 69.7°F20.9°C 40.0°F4.4°C 34% Calm Calm 1.2 mph1.9 kmh 30.26 in1024.7 mb - 0.00 in0.0 mm 0.00 in0.0 mm
05:50 PM 71.6°F22.0°C 40.2°F4.6°C 32% 2.3 mph WSW3.7 kmh WSW 3.5 mph5.6 kmh 30.26 in1024.7 mb - 0.00 in0.0 mm 0.00 in0.0 mm
05:40 PM 72.1°F22.3°C 39.8°F4.3°C 31% 1.2 mph NW1.9 kmh NW 2.3 mph3.7 kmh 30.26 in1024.7 mb - 0.00 in0.0 mm 0.00 in0.0 mm
05:30 PM 72.3°F22.4°C 39.9°F4.4°C 31% Calm Calm -- 30.26 in1024.7 mb - 0.00 in0.0 mm 0.00 in0.0 mm
05:20 PM 72.9°F22.7°C 39.6°F4.2°C 30% 1.2 mph W1.9 kmh W 2.3 mph3.7 kmh 30.26 in1024.7 mb - 0.00 in0.0 mm 0.00 in0.0 mm
05:10 PM 73.0°F22.8°C 39.7°F4.3°C 30% 1.2 mph NW1.9 kmh NW 3.5 mph5.6 kmh 30.26 in1024.7 mb - 0.00 in0.0 mm 0.00 in0.0 mm
05:00 PM 73.1°F22.8°C 40.7°F4.8°C 31% Calm Calm 1.2 mph1.9 kmh 30.26 in1024.7 mb - 0.00 in0.0 mm 0.00 in0.0 mm
04:50 PM 73.5°F23.1°C 41.0°F5.0°C 31% 1.2 mph WSW1.9 kmh WSW 3.5 mph5.6 kmh 30.26 in1024.7 mb - 0.00 in0.0 mm 0.00 in0.0 mm
04:40 PM 73.2°F22.9°C 40.7°F4.8°C 31% 2.3 mph N3.7 kmh N 3.5 mph5.6 kmh 30.26 in1024.7 mb - 0.00 in0.0 mm 0.00 in0.0 mm
04:30 PM 73.3°F22.9°C 41.6°F5.3°C 32% 1.2 mph N1.9 kmh N 3.5 mph5.6 kmh 30.26 in1024.7 mb - 0.00 in0.0 mm 0.00 in0.0 mm
04:20 PM 73.3°F22.9°C 41.7°F5.4°C 32% 1.2 mph NW1.9 kmh NW 3.5 mph5.6 kmh 30.26 in1024.7 mb - 0.00 in0.0 mm 0.00 in0.0 mm
04:10 PM 73.4°F23.0°C 41.7°F5.4°C 32% 1.2 mph NW1.9 kmh NW 3.5 mph5.6 kmh 30.26 in1024.7 mb - 0.00 in0.0 mm 0.00 in0.0 mm
04:00 PM 73.4°F23.0°C 42.5°F5.8°C 33% 1.2 mph NNE1.9 kmh NNE 3.5 mph5.6 kmh 30.26 in1024.7 mb - 0.00 in0.0 mm 0.00 in0.0 mm
03:50 PM 73.3°F22.9°C 43.2°F6.2°C 34% 1.2 mph NNE1.9 kmh NNE 1.2 mph1.9 kmh 30.26 in1024.7 mb - 0.00 in0.0 mm 0.00 in0.0 mm
03:40 PM 72.8°F22.7°C 42.8°F6.0°C 34% 1.2 mph NW1.9 kmh NW 4.6 mph7.4 kmh 30.26 in1024.7 mb - 0.00 in0.0 mm 0.00 in0.0 mm
03:30 PM 73.0°F22.8°C 42.9°F6.1°C 34% 1.2 mph 1.9 kmh 3.5 mph5.6 kmh 30.27 in1025.1 mb - 0.00 in0.0 mm 0.00 in0.0 mm
03:20 PM 72.7°F22.6°C 42.7°F5.9°C 34% 1.2 mph N1.9 kmh N 3.5 mph5.6 kmh 30.27 in1025.1 mb - 0.00 in0.0 mm 0.00 in0.0 mm
03:10 PM 72.1°F22.3°C 42.2°F5.7°C 34% 1.2 mph NW1.9 kmh NW 3.5 mph5.6 kmh 30.27 in1025.1 mb - 0.00 in0.0 mm 0.00 in0.0 mm
03:00 PM 72.1°F22.3°C 42.2°F5.7°C 34% Calm Calm 1.2 mph1.9 kmh 30.28 in1025.4 mb - 0.00 in0.0 mm 0.00 in0.0 mm
02:50 PM 71.7°F22.1°C 43.3°F6.3°C 36% 2.3 mph NW3.7 kmh NW 3.5 mph5.6 kmh 30.28 in1025.4 mb - 0.00 in0.0 mm 0.00 in0.0 mm
02:40 PM 71.0°F21.7°C 43.4°F6.3°C 37% 1.2 mph WSW1.9 kmh WSW 5.8 mph9.3 kmh 30.28 in1025.4 mb - 0.00 in0.0 mm 0.00 in0.0 mm
02:30 PM 70.4°F21.3°C 42.9°F6.1°C 37% 1.2 mph NNW1.9 kmh NNW 2.3 mph3.7 kmh 30.29 in1025.7 mb - 0.00 in0.0 mm 0.00 in0.0 mm
02:20 PM 69.7°F20.9°C 43.0°F6.1°C 38% Calm Calm 4.6 mph7.4 kmh 30.30 in1026.1 mb - 0.00 in0.0 mm 0.00 in0.0 mm
02:10 PM 69.1°F20.6°C 43.1°F6.2°C 39% 2.3 mph NNW3.7 kmh NNW 3.5 mph5.6 kmh 30.30 in1026.1 mb - 0.00 in0.0 mm 0.00 in0.0 mm
02:00 PM 68.7°F20.4°C 42.7°F5.9°C 39% 3.5 mph NW5.6 kmh NW 5.8 mph9.3 kmh 30.30 in1026.1 mb - 0.00 in0.0 mm 0.00 in0.0 mm
01:50 PM 68.3°F20.2°C 42.4°F5.8°C 39% 3.5 mph NW5.6 kmh NW 5.8 mph9.3 kmh 30.31 in1026.4 mb - 0.00 in0.0 mm 0.00 in0.0 mm
01:40 PM 67.9°F19.9°C 42.0°F5.6°C 39% 3.5 mph NNW5.6 kmh NNW 5.8 mph9.3 kmh 30.32 in1026.8 mb - 0.00 in0.0 mm 0.00 in0.0 mm
01:30 PM 67.5°F19.7°C 42.3°F5.7°C 40% 2.3 mph N3.7 kmh N 4.6 mph7.4 kmh 30.32 in1026.8 mb - 0.00 in0.0 mm 0.00 in0.0 mm
01:20 PM 66.9°F19.4°C 42.4°F5.8°C 41% 2.3 mph N3.7 kmh N 2.3 mph3.7 kmh 30.33 in1027.1 mb - 0.00 in0.0 mm 0.00 in0.0 mm
01:10 PM 66.3°F19.1°C 42.5°F5.8°C 42% 1.2 mph NNW1.9 kmh NNW 3.5 mph5.6 kmh 30.33 in1027.1 mb - 0.00 in0.0 mm 0.00 in0.0 mm
01:00 PM 65.4°F18.6°C 41.7°F5.4°C 42% 1.2 mph W1.9 kmh W 3.5 mph5.6 kmh 30.34 in1027.4 mb - 0.00 in0.0 mm 0.00 in0.0 mm
12:50 PM 64.5°F18.1°C 42.7°F5.9°C 45% Calm Calm 1.2 mph1.9 kmh 30.34 in1027.4 mb - 0.00 in0.0 mm 0.00 in0.0 mm
12:40 PM 63.7°F17.6°C 42.6°F5.9°C 46% Calm Calm 2.3 mph3.7 kmh 30.35 in1027.8 mb - 0.00 in0.0 mm 0.00 in0.0 mm
12:30 PM 62.3°F16.8°C 42.4°F5.8°C 48% 1.2 mph NW1.9 kmh NW 2.3 mph3.7 kmh 30.35 in1027.8 mb - 0.00 in0.0 mm 0.00 in0.0 mm
12:20 PM 60.6°F15.9°C 42.3°F5.7°C 51% 2.3 mph NW3.7 kmh NW 3.5 mph5.6 kmh 30.36 in1028.1 mb - 0.00 in0.0 mm 0.00 in0.0 mm
12:10 PM 59.8°F15.4°C 41.6°F5.3°C 51% 3.5 mph N5.6 kmh N 5.8 mph9.3 kmh 30.36 in1028.1 mb - 0.00 in0.0 mm 0.00 in0.0 mm
12:00 PM 59.1°F15.1°C 41.5°F5.3°C 52% 3.5 mph N5.6 kmh N 5.8 mph9.3 kmh 30.37 in1028.4 mb - 0.00 in0.0 mm 0.00 in0.0 mm
11:50 AM 58.1°F14.5°C 41.0°F5.0°C 53% 2.3 mph N3.7 kmh N 4.6 mph7.4 kmh 30.37 in1028.4 mb - 0.00 in0.0 mm 0.00 in0.0 mm
11:40 AM 57.0°F13.9°C 40.5°F4.7°C 54% 3.5 mph NNW5.6 kmh NNW 5.8 mph9.3 kmh 30.38 in1028.8 mb - 0.00 in0.0 mm 0.00 in0.0 mm
11:30 AM 56.2°F13.4°C 40.2°F4.6°C 55% 3.5 mph NNW5.6 kmh NNW 6.9 mph11.1 kmh 30.38 in1028.8 mb - 0.00 in0.0 mm 0.00 in0.0 mm
11:20 AM 55.1°F12.8°C 40.1°F4.5°C 57% 3.5 mph NNW5.6 kmh NNW 4.6 mph7.4 kmh 30.39 in1029.1 mb - 0.00 in0.0 mm 0.00 in0.0 mm
11:10 AM 53.9°F12.2°C 40.3°F4.6°C 60% 3.5 mph NNW5.6 kmh NNW 6.9 mph11.1 kmh 30.39 in1029.1 mb - 0.00 in0.0 mm 0.00 in0.0 mm
11:00 AM 52.6°F11.4°C 39.5°F4.2°C 61% 4.6 mph NW7.4 kmh NW 9.2 mph14.8 kmh 30.39 in1029.1 mb - 0.00 in0.0 mm 0.00 in0.0 mm
10:50 AM 51.3°F10.7°C 39.6°F4.2°C 64% 2.3 mph NW3.7 kmh NW 5.8 mph9.3 kmh 30.39 in1029.1 mb - 0.00 in0.0 mm 0.00 in0.0 mm
10:40 AM 50.2°F10.1°C 38.9°F3.8°C 65% 1.2 mph N1.9 kmh N 3.5 mph5.6 kmh 30.39 in1029.1 mb - 0.00 in0.0 mm 0.00 in0.0 mm
10:30 AM 49.4°F9.7°C 38.9°F3.8°C 67% 3.5 mph N5.6 kmh N 6.9 mph11.1 kmh 30.38 in1028.8 mb - 0.00 in0.0 mm 0.00 in0.0 mm
10:20 AM 49.0°F9.4°C 38.9°F3.8°C 68% 2.3 mph W3.7 kmh W 3.5 mph5.6 kmh 30.39 in1029.1 mb - 0.00 in0.0 mm 0.00 in0.0 mm
10:10 AM 47.1°F8.4°C 38.2°F3.4°C 71% 4.6 mph WSW7.4 kmh WSW 10.4 mph16.7 kmh 30.39 in1029.1 mb - 0.00 in0.0 mm 0.00 in0.0 mm
10:00 AM 46.5°F8.1°C 38.0°F3.3°C 72% 5.8 mph NW9.3 kmh NW 10.4 mph16.7 kmh 30.39 in1029.1 mb - 0.00 in0.0 mm 0.00 in0.0 mm
09:50 AM 45.5°F7.5°C 37.7°F3.2°C 74% 4.6 mph NW7.4 kmh NW 8.1 mph13.0 kmh 30.40 in1029.5 mb - 0.00 in0.0 mm 0.00 in0.0 mm
09:40 AM 44.6°F7.0°C 37.5°F3.1°C 76% 5.8 mph NNW9.3 kmh NNW 11.5 mph18.5 kmh 30.39 in1029.1 mb - 0.00 in0.0 mm 0.00 in0.0 mm
09:30 AM 43.9°F6.6°C 36.8°F2.7°C 76% 3.5 mph N5.6 kmh N 5.8 mph9.3 kmh 30.40 in1029.5 mb - 0.00 in0.0 mm 0.00 in0.0 mm
09:20 AM 43.1°F6.2°C 36.7°F2.6°C 78% 4.6 mph NNW7.4 kmh NNW 10.4 mph16.7 kmh 30.39 in1029.1 mb - 0.00 in0.0 mm 0.00 in0.0 mm
09:10 AM 42.3°F5.7°C 36.3°F2.4°C 79% 4.6 mph NW7.4 kmh NW 8.1 mph13.0 kmh 30.40 in1029.5 mb - 0.00 in0.0 mm 0.00 in0.0 mm
09:00 AM 41.7°F5.4°C 36.0°F2.2°C 80% 3.5 mph WNW5.6 kmh WNW 10.4 mph16.7 kmh 30.40 in1029.5 mb - 0.00 in0.0 mm 0.00 in0.0 mm
08:50 AM 41.6°F5.3°C 35.9°F2.2°C 80% 3.5 mph NNW5.6 kmh NNW 6.9 mph11.1 kmh 30.40 in1029.5 mb - 0.00 in0.0 mm 0.00 in0.0 mm
08:40 AM 41.8°F5.4°C 36.1°F2.3°C 80% 3.5 mph N5.6 kmh N 6.9 mph11.1 kmh 30.40 in1029.5 mb - 0.00 in0.0 mm 0.00 in0.0 mm
08:30 AM 41.7°F5.4°C 36.3°F2.4°C 81% 2.3 mph N3.7 kmh N 5.8 mph9.3 kmh 30.40 in1029.5 mb - 0.00 in0.0 mm 0.00 in0.0 mm
08:20 AM 41.2°F5.1°C 35.8°F2.1°C 81% 3.5 mph NW5.6 kmh NW 5.8 mph9.3 kmh 30.39 in1029.1 mb - 0.00 in0.0 mm 0.00 in0.0 mm
08:10 AM 40.9°F4.9°C 35.5°F1.9°C 81% 2.3 mph N3.7 kmh N 4.6 mph7.4 kmh 30.40 in1029.5 mb - 0.00 in0.0 mm 0.00 in0.0 mm
08:00 AM 40.8°F4.9°C 35.4°F1.9°C 81% 3.5 mph NNW5.6 kmh NNW 5.8 mph9.3 kmh 30.40 in1029.5 mb - 0.00 in0.0 mm 0.00 in0.0 mm
07:50 AM 40.6°F4.8°C 35.5°F1.9°C 82% 1.2 mph NNW1.9 kmh NNW 5.8 mph9.3 kmh 30.40 in1029.5 mb - 0.00 in0.0 mm 0.00 in0.0 mm
07:40 AM 41.1°F5.1°C 35.7°F2.1°C 81% 2.3 mph WNW3.7 kmh WNW 3.5 mph5.6 kmh 30.39 in1029.1 mb - 0.00 in0.0 mm 0.00 in0.0 mm
07:30 AM 41.6°F5.3°C 36.2°F2.3°C 81% 2.3 mph N3.7 kmh N 3.5 mph5.6 kmh 30.39 in1029.1 mb - 0.00 in0.0 mm 0.00 in0.0 mm
07:20 AM 42.0°F5.6°C 36.6°F2.6°C 81% 3.5 mph N5.6 kmh N 6.9 mph11.1 kmh 30.39 in1029.1 mb - 0.00 in0.0 mm 0.00 in0.0 mm
07:10 AM 41.3°F5.2°C 36.6°F2.6°C 83% 3.5 mph NNW5.6 kmh NNW 5.8 mph9.3 kmh 30.39 in1029.1 mb - 0.00 in0.0 mm 0.00 in0.0 mm
07:00 AM 41.4°F5.2°C 36.3°F2.4°C 82% 5.8 mph N9.3 kmh N 11.5 mph18.5 kmh 30.39 in1029.1 mb - 0.00 in0.0 mm 0.00 in0.0 mm
06:50 AM 41.1°F5.1°C 36.3°F2.4°C 83% 4.6 mph NW7.4 kmh NW 8.1 mph13.0 kmh 30.40 in1029.5 mb - 0.00 in0.0 mm 0.00 in0.0 mm
06:40 AM 41.0°F5.0°C 35.9°F2.2°C 82% 3.5 mph NW5.6 kmh NW 8.1 mph13.0 kmh 30.40 in1029.5 mb - 0.00 in0.0 mm 0.00 in0.0 mm
06:30 AM 41.4°F5.2°C 36.0°F2.2°C 81% 3.5 mph N5.6 kmh N 3.5 mph5.6 kmh 30.41 in1029.8 mb - 0.00 in0.0 mm 0.00 in0.0 mm
06:20 AM 41.6°F5.3°C 36.5°F2.5°C 82% 3.5 mph NNW5.6 kmh NNW 4.6 mph7.4 kmh 30.40 in1029.5 mb - 0.00 in0.0 mm 0.00 in0.0 mm
06:10 AM 41.4°F5.2°C 36.6°F2.6°C 83% 2.3 mph N3.7 kmh N 3.5 mph5.6 kmh 30.40 in1029.5 mb - 0.00 in0.0 mm 0.00 in0.0 mm
06:00 AM 41.1°F5.1°C 36.3°F2.4°C 83% 1.2 mph SW1.9 kmh SW 3.5 mph5.6 kmh 30.41 in1029.8 mb - 0.00 in0.0 mm 0.00 in0.0 mm
05:50 AM 41.5°F5.3°C 36.4°F2.4°C 82% 3.5 mph NNW5.6 kmh NNW 5.8 mph9.3 kmh 30.41 in1029.8 mb - 0.00 in0.0 mm 0.00 in0.0 mm
05:40 AM 42.4°F5.8°C 37.3°F2.9°C 82% 2.3 mph NNW3.7 kmh NNW 4.6 mph7.4 kmh 30.41 in1029.8 mb - 0.00 in0.0 mm 0.00 in0.0 mm
05:30 AM 42.6°F5.9°C 37.5°F3.1°C 82% 1.2 mph N1.9 kmh N 3.5 mph5.6 kmh 30.41 in1029.8 mb - 0.00 in0.0 mm 0.00 in0.0 mm
05:20 AM 42.5°F5.8°C 37.4°F3.0°C 82% 2.3 mph NNE3.7 kmh NNE 3.5 mph5.6 kmh 30.41 in1029.8 mb - 0.00 in0.0 mm 0.00 in0.0 mm
05:10 AM 42.8°F6.0°C 37.7°F3.2°C 82% 1.2 mph NNW1.9 kmh NNW 4.6 mph7.4 kmh 30.40 in1029.5 mb - 0.00 in0.0 mm 0.00 in0.0 mm
05:00 AM 43.1°F6.2°C 37.7°F3.2°C 81% 2.3 mph N3.7 kmh N 3.5 mph5.6 kmh 30.40 in1029.5 mb - 0.00 in0.0 mm 0.00 in0.0 mm
04:50 AM 43.3°F6.3°C 37.9°F3.3°C 81% 1.2 mph NE1.9 kmh NE 3.5 mph5.6 kmh 30.40 in1029.5 mb - 0.00 in0.0 mm 0.00 in0.0 mm
04:40 AM 43.8°F6.6°C 38.0°F3.3°C 80% 2.3 mph N3.7 kmh N 4.6 mph7.4 kmh 30.40 in1029.5 mb - 0.00 in0.0 mm 0.00 in0.0 mm
04:30 AM 43.8°F6.6°C 38.3°F3.5°C 81% 2.3 mph N3.7 kmh N 3.5 mph5.6 kmh 30.41 in1029.8 mb - 0.00 in0.0 mm 0.00 in0.0 mm
04:20 AM 43.3°F6.3°C 38.2°F3.4°C 82% Calm Calm 5.8 mph9.3 kmh 30.40 in1029.5 mb - 0.00 in0.0 mm 0.00 in0.0 mm
04:10 AM 43.5°F6.4°C 38.4°F3.6°C 82% 2.3 mph NNW3.7 kmh NNW 5.8 mph9.3 kmh 30.40 in1029.5 mb - 0.00 in0.0 mm 0.00 in0.0 mm
04:00 AM 43.6°F6.4°C 38.8°F3.8°C 83% 1.2 mph N1.9 kmh N 5.8 mph9.3 kmh 30.41 in1029.8 mb - 0.00 in0.0 mm 0.00 in0.0 mm
03:50 AM 43.6°F6.4°C 38.8°F3.8°C 83% 1.2 mph NW1.9 kmh NW 2.3 mph3.7 kmh 30.41 in1029.8 mb - 0.00 in0.0 mm 0.00 in0.0 mm
03:40 AM 43.9°F6.6°C 38.8°F3.8°C 82% 2.3 mph NNW3.7 kmh NNW 9.2 mph14.8 kmh 30.41 in1029.8 mb - 0.00 in0.0 mm 0.00 in0.0 mm
03:30 AM 44.2°F6.8°C 39.1°F3.9°C 82% 1.2 mph NW1.9 kmh NW 2.3 mph3.7 kmh 30.41 in1029.8 mb - 0.00 in0.0 mm 0.00 in0.0 mm
03:20 AM 44.5°F6.9°C 39.1°F3.9°C 81% 2.3 mph N3.7 kmh N 3.5 mph5.6 kmh 30.41 in1029.8 mb - 0.00 in0.0 mm 0.00 in0.0 mm
03:10 AM 44.8°F7.1°C 39.6°F4.2°C 82% 1.2 mph N1.9 kmh N 3.5 mph5.6 kmh 30.41 in1029.8 mb - 0.00 in0.0 mm 0.00 in0.0 mm
03:00 AM 44.9°F7.2°C 39.7°F4.3°C 82% 1.2 mph NW1.9 kmh NW 2.3 mph3.7 kmh 30.41 in1029.8 mb - 0.00 in0.0 mm 0.00 in0.0 mm
02:50 AM 44.8°F7.1°C 39.6°F4.2°C 82% 1.2 mph N1.9 kmh N 3.5 mph5.6 kmh 30.41 in1029.8 mb - 0.00 in0.0 mm 0.00 in0.0 mm
02:40 AM 44.9°F7.2°C 39.7°F4.3°C 82% 1.2 mph N1.9 kmh N 3.5 mph5.6 kmh 30.42 in1030.1 mb - 0.00 in0.0 mm 0.00 in0.0 mm
02:30 AM 45.0°F7.2°C 40.1°F4.5°C 83% Calm Calm 3.5 mph5.6 kmh 30.41 in1029.8 mb - 0.00 in0.0 mm 0.00 in0.0 mm
02:20 AM 45.0°F7.2°C 40.5°F4.7°C 84% 1.2 mph NNW1.9 kmh NNW 3.5 mph5.6 kmh 30.41 in1029.8 mb - 0.00 in0.0 mm 0.00 in0.0 mm
02:10 AM 45.0°F7.2°C 40.5°F4.7°C 84% Calm Calm 1.2 mph1.9 kmh 30.41 in1029.8 mb - 0.00 in0.0 mm 0.00 in0.0 mm
02:00 AM 45.3°F7.4°C 40.7°F4.8°C 84% Calm Calm -- 30.41 in1029.8 mb - 0.00 in0.0 mm 0.00 in0.0 mm
01:50 AM 45.4°F7.4°C 40.8°F4.9°C 84% 1.2 mph NE1.9 kmh NE 2.3 mph3.7 kmh 30.41 in1029.8 mb - 0.00 in0.0 mm 0.00 in0.0 mm
01:40 AM 45.2°F7.3°C 41.0°F5.0°C 85% Calm Calm -- 30.42 in1030.1 mb - 0.00 in0.0 mm 0.00 in0.0 mm
01:30 AM 45.1°F7.3°C 40.9°F4.9°C 85% Calm Calm 1.2 mph1.9 kmh 30.42 in1030.1 mb - 0.00 in0.0 mm 0.00 in0.0 mm
01:20 AM 45.2°F7.3°C 41.3°F5.2°C 86% Calm Calm 2.3 mph3.7 kmh 30.42 in1030.1 mb - 0.00 in0.0 mm 0.00 in0.0 mm
01:10 AM 45.3°F7.4°C 41.4°F5.2°C 86% 1.2 mph NNW1.9 kmh NNW 2.3 mph3.7 kmh 30.42 in1030.1 mb - 0.00 in0.0 mm 0.00 in0.0 mm
01:00 AM 45.5°F7.5°C 41.6°F5.3°C 86% 2.3 mph N3.7 kmh N 3.5 mph5.6 kmh 30.42 in1030.1 mb - 0.00 in0.0 mm 0.00 in0.0 mm
12:50 AM 45.9°F7.7°C 41.9°F5.5°C 86% 2.3 mph NW3.7 kmh NW 3.5 mph5.6 kmh 30.42 in1030.1 mb - 0.00 in0.0 mm 0.00 in0.0 mm
12:40 AM 46.0°F7.8°C 42.3°F5.7°C 87% Calm Calm 2.3 mph3.7 kmh 30.42 in1030.1 mb - 0.00 in0.0 mm 0.00 in0.0 mm
12:30 AM 45.9°F7.7°C 42.5°F5.8°C 88% Calm Calm 1.2 mph1.9 kmh 30.42 in1030.1 mb - 0.00 in0.0 mm 0.00 in0.0 mm
12:20 AM 45.5°F7.5°C 42.7°F5.9°C 90% 1.2 mph NW1.9 kmh NW 3.5 mph5.6 kmh 30.42 in1030.1 mb - 0.00 in0.0 mm 0.00 in0.0 mm
12:10 AM 44.5°F6.9°C 42.0°F5.6°C 91% Calm Calm 1.2 mph1.9 kmh 30.42 in1030.1 mb - 0.00 in0.0 mm 0.00 in0.0 mm
12:00 AM 44.2°F6.8°C 41.5°F5.3°C 90% Calm Calm 1.2 mph1.9 kmh 30.43 in1030.5 mb - 0.00 in0.0 mm 0.00 in0.0 mm